sensor_id;sensor_type;location;lat;lon;timestamp;P1;durP1;ratioP1;P2;durP2;ratioP2
14116;SDS011;7137;51.436;6.544;2022-10-29T00:01:32;12.70;;;7.93;;
14116;SDS011;7137;51.436;6.544;2022-10-29T00:04:34;11.03;;;6.77;;
14116;SDS011;7137;51.436;6.544;2022-10-29T00:07:35;12.20;;;7.20;;
14116;SDS011;7137;51.436;6.544;2022-10-29T00:10:38;10.60;;;6.07;;
14116;SDS011;7137;51.436;6.544;2022-10-29T00:13:40;12.17;;;6.50;;
14116;SDS011;7137;51.436;6.544;2022-10-29T00:16:42;12.80;;;6.37;;
14116;SDS011;7137;51.436;6.544;2022-10-29T00:19:43;9.37;;;5.53;;
14116;SDS011;7137;51.436;6.544;2022-10-29T00:22:45;12.53;;;5.93;;
14116;SDS011;7137;51.436;6.544;2022-10-29T00:25:48;12.17;;;6.37;;
14116;SDS011;7137;51.436;6.544;2022-10-29T00:28:50;12.40;;;6.53;;
14116;SDS011;7137;51.436;6.544;2022-10-29T00:31:52;11.03;;;5.90;;
14116;SDS011;7137;51.436;6.544;2022-10-29T00:34:54;9.50;;;5.60;;
14116;SDS011;7137;51.436;6.544;2022-10-29T00:37:55;10.47;;;6.27;;
14116;SDS011;7137;51.436;6.544;2022-10-29T00:40:58;10.77;;;6.10;;
14116;SDS011;7137;51.436;6.544;2022-10-29T00:47:32;10.67;;;6.57;;
14116;SDS011;7137;51.436;6.544;2022-10-29T00:50:36;11.30;;;6.47;;
14116;SDS011;7137;51.436;6.544;2022-10-29T00:53:40;12.40;;;6.60;;
14116;SDS011;7137;51.436;6.544;2022-10-29T00:56:46;11.53;;;6.97;;
14116;SDS011;7137;51.436;6.544;2022-10-29T00:59:51;12.63;;;6.80;;
14116;SDS011;7137;51.436;6.544;2022-10-29T01:02:53;12.17;;;7.00;;
14116;SDS011;7137;51.436;6.544;2022-10-29T01:05:54;10.00;;;6.17;;
14116;SDS011;7137;51.436;6.544;2022-10-29T01:08:56;11.10;;;6.50;;
14116;SDS011;7137;51.436;6.544;2022-10-29T01:12:02;11.97;;;6.87;;
14116;SDS011;7137;51.436;6.544;2022-10-29T01:15:28;12.93;;;6.60;;
14116;SDS011;7137;51.436;6.544;2022-10-29T01:18:39;14.00;;;6.87;;
14116;SDS011;7137;51.436;6.544;2022-10-29T01:21:47;11.23;;;6.73;;
14116;SDS011;7137;51.436;6.544;2022-10-29T01:24:55;10.00;;;6.50;;
14116;SDS011;7137;51.436;6.544;2022-10-29T01:28:14;16.37;;;7.60;;
14116;SDS011;7137;51.436;6.544;2022-10-29T01:31:28;12.77;;;7.07;;
14116;SDS011;7137;51.436;6.544;2022-10-29T01:34:35;12.13;;;6.70;;
14116;SDS011;7137;51.436;6.544;2022-10-29T01:37:44;10.27;;;6.67;;
14116;SDS011;7137;51.436;6.544;2022-10-29T01:40:57;10.10;;;6.80;;
14116;SDS011;7137;51.436;6.544;2022-10-29T01:44:04;9.93;;;6.73;;
14116;SDS011;7137;51.436;6.544;2022-10-29T01:47:21;10.40;;;6.43;;
14116;SDS011;7137;51.436;6.544;2022-10-29T01:50:27;12.03;;;7.17;;
14116;SDS011;7137;51.436;6.544;2022-10-29T01:53:29;10.20;;;7.37;;
14116;SDS011;7137;51.436;6.544;2022-10-29T01:56:34;12.03;;;8.17;;
14116;SDS011;7137;51.436;6.544;2022-10-29T01:59:36;12.23;;;8.57;;
14116;SDS011;7137;51.436;6.544;2022-10-29T02:02:43;14.13;;;8.87;;
14116;SDS011;7137;51.436;6.544;2022-10-29T02:05:53;13.23;;;8.27;;
14116;SDS011;7137;51.436;6.544;2022-10-29T02:09:01;10.50;;;7.67;;
14116;SDS011;7137;51.436;6.544;2022-10-29T02:12:09;12.13;;;7.70;;
14116;SDS011;7137;51.436;6.544;2022-10-29T02:15:18;10.57;;;7.37;;
14116;SDS011;7137;51.436;6.544;2022-10-29T02:18:27;14.30;;;7.70;;
14116;SDS011;7137;51.436;6.544;2022-10-29T02:21:28;12.77;;;8.00;;
14116;SDS011;7137;51.436;6.544;2022-10-29T02:24:30;12.40;;;7.27;;
14116;SDS011;7137;51.436;6.544;2022-10-29T02:27:31;12.43;;;7.43;;
14116;SDS011;7137;51.436;6.544;2022-10-29T02:30:33;11.47;;;7.23;;
14116;SDS011;7137;51.436;6.544;2022-10-29T02:33:36;11.83;;;7.50;;
14116;SDS011;7137;51.436;6.544;2022-10-29T02:36:38;13.47;;;7.77;;
14116;SDS011;7137;51.436;6.544;2022-10-29T02:39:39;12.53;;;7.47;;
14116;SDS011;7137;51.436;6.544;2022-10-29T02:42:41;10.07;;;7.07;;
14116;SDS011;7137;51.436;6.544;2022-10-29T02:45:42;11.53;;;8.10;;
14116;SDS011;7137;51.436;6.544;2022-10-29T02:48:46;15.20;;;8.40;;
14116;SDS011;7137;51.436;6.544;2022-10-29T02:51:48;12.07;;;7.63;;
14116;SDS011;7137;51.436;6.544;2022-10-29T02:54:50;12.77;;;8.00;;
14116;SDS011;7137;51.436;6.544;2022-10-29T02:57:51;12.93;;;7.97;;
14116;SDS011;7137;51.436;6.544;2022-10-29T03:00:53;13.37;;;8.67;;
14116;SDS011;7137;51.436;6.544;2022-10-29T03:03:56;14.53;;;8.63;;
14116;SDS011;7137;51.436;6.544;2022-10-29T03:06:58;14.93;;;7.80;;
14116;SDS011;7137;51.436;6.544;2022-10-29T03:10:00;13.50;;;7.60;;
14116;SDS011;7137;51.436;6.544;2022-10-29T03:13:02;12.43;;;7.87;;
14116;SDS011;7137;51.436;6.544;2022-10-29T03:16:04;13.80;;;8.53;;
14116;SDS011;7137;51.436;6.544;2022-10-29T03:19:07;14.93;;;8.33;;
14116;SDS011;7137;51.436;6.544;2022-10-29T03:22:08;10.87;;;7.30;;
14116;SDS011;7137;51.436;6.544;2022-10-29T03:25:10;16.50;;;9.23;;
14116;SDS011;7137;51.436;6.544;2022-10-29T03:28:11;13.10;;;8.10;;
14116;SDS011;7137;51.436;6.544;2022-10-29T03:31:13;14.90;;;8.33;;
14116;SDS011;7137;51.436;6.544;2022-10-29T03:34:16;13.77;;;7.67;;
14116;SDS011;7137;51.436;6.544;2022-10-29T03:37:17;13.03;;;8.00;;
14116;SDS011;7137;51.436;6.544;2022-10-29T03:40:19;13.27;;;8.93;;
14116;SDS011;7137;51.436;6.544;2022-10-29T03:43:20;13.33;;;7.87;;
14116;SDS011;7137;51.436;6.544;2022-10-29T03:46:22;10.53;;;7.43;;
14116;SDS011;7137;51.436;6.544;2022-10-29T03:49:25;12.23;;;7.30;;
14116;SDS011;7137;51.436;6.544;2022-10-29T03:52:27;12.07;;;7.77;;
14116;SDS011;7137;51.436;6.544;2022-10-29T03:55:28;13.00;;;7.87;;
14116;SDS011;7137;51.436;6.544;2022-10-29T03:58:30;11.43;;;7.87;;
14116;SDS011;7137;51.436;6.544;2022-10-29T04:01:31;13.10;;;8.50;;
14116;SDS011;7137;51.436;6.544;2022-10-29T04:04:34;10.97;;;7.40;;
14116;SDS011;7137;51.436;6.544;2022-10-29T04:07:36;12.37;;;7.40;;
14116;SDS011;7137;51.436;6.544;2022-10-29T04:10:37;11.43;;;7.43;;
14116;SDS011;7137;51.436;6.544;2022-10-29T04:13:44;11.50;;;7.57;;
14116;SDS011;7137;51.436;6.544;2022-10-29T04:16:45;10.57;;;7.93;;
14116;SDS011;7137;51.436;6.544;2022-10-29T04:19:49;12.60;;;7.80;;
14116;SDS011;7137;51.436;6.544;2022-10-29T04:22:51;11.40;;;7.87;;
14116;SDS011;7137;51.436;6.544;2022-10-29T04:25:53;13.77;;;8.00;;
14116;SDS011;7137;51.436;6.544;2022-10-29T04:28:55;11.57;;;7.57;;
14116;SDS011;7137;51.436;6.544;2022-10-29T04:31:57;12.83;;;7.10;;
14116;SDS011;7137;51.436;6.544;2022-10-29T04:35:00;12.60;;;8.07;;
14116;SDS011;7137;51.436;6.544;2022-10-29T04:38:06;13.07;;;7.67;;
14116;SDS011;7137;51.436;6.544;2022-10-29T04:41:08;10.63;;;7.50;;
14116;SDS011;7137;51.436;6.544;2022-10-29T04:44:09;11.77;;;7.50;;
14116;SDS011;7137;51.436;6.544;2022-10-29T04:47:11;13.57;;;7.70;;
14116;SDS011;7137;51.436;6.544;2022-10-29T04:50:14;12.93;;;8.00;;
14116;SDS011;7137;51.436;6.544;2022-10-29T04:53:15;13.50;;;8.10;;
14116;SDS011;7137;51.436;6.544;2022-10-29T04:56:17;12.37;;;7.70;;
14116;SDS011;7137;51.436;6.544;2022-10-29T04:59:19;11.07;;;7.93;;
14116;SDS011;7137;51.436;6.544;2022-10-29T05:02:20;11.97;;;7.90;;
14116;SDS011;7137;51.436;6.544;2022-10-29T05:05:23;12.60;;;7.80;;
14116;SDS011;7137;51.436;6.544;2022-10-29T05:08:25;11.20;;;7.10;;
14116;SDS011;7137;51.436;6.544;2022-10-29T05:11:27;11.70;;;7.30;;
14116;SDS011;7137;51.436;6.544;2022-10-29T05:14:28;10.33;;;7.00;;
14116;SDS011;7137;51.436;6.544;2022-10-29T05:17:30;11.13;;;7.60;;
14116;SDS011;7137;51.436;6.544;2022-10-29T05:20:33;11.30;;;7.37;;
14116;SDS011;7137;51.436;6.544;2022-10-29T05:23:34;11.80;;;6.87;;
14116;SDS011;7137;51.436;6.544;2022-10-29T05:26:36;13.50;;;7.60;;
14116;SDS011;7137;51.436;6.544;2022-10-29T05:29:37;12.80;;;7.70;;
14116;SDS011;7137;51.436;6.544;2022-10-29T05:32:39;11.90;;;7.03;;
14116;SDS011;7137;51.436;6.544;2022-10-29T05:35:41;13.10;;;7.27;;
14116;SDS011;7137;51.436;6.544;2022-10-29T05:38:43;11.73;;;7.80;;
14116;SDS011;7137;51.436;6.544;2022-10-29T05:41:45;12.57;;;7.73;;
14116;SDS011;7137;51.436;6.544;2022-10-29T05:44:46;12.97;;;8.37;;
14116;SDS011;7137;51.436;6.544;2022-10-29T05:47:50;15.10;;;8.03;;
14116;SDS011;7137;51.436;6.544;2022-10-29T05:50:57;13.10;;;7.70;;
14116;SDS011;7137;51.436;6.544;2022-10-29T05:53:59;11.30;;;7.20;;
14116;SDS011;7137;51.436;6.544;2022-10-29T05:57:00;10.83;;;7.17;;
14116;SDS011;7137;51.436;6.544;2022-10-29T06:00:02;12.17;;;7.40;;
14116;SDS011;7137;51.436;6.544;2022-10-29T06:03:07;10.70;;;7.30;;
14116;SDS011;7137;51.436;6.544;2022-10-29T06:06:13;9.80;;;7.30;;
14116;SDS011;7137;51.436;6.544;2022-10-29T06:09:15;14.27;;;8.23;;
14116;SDS011;7137;51.436;6.544;2022-10-29T06:12:16;13.83;;;7.53;;
14116;SDS011;7137;51.436;6.544;2022-10-29T06:15:18;10.57;;;7.90;;
14116;SDS011;7137;51.436;6.544;2022-10-29T06:18:19;13.10;;;8.03;;
14116;SDS011;7137;51.436;6.544;2022-10-29T06:21:22;11.17;;;7.70;;
14116;SDS011;7137;51.436;6.544;2022-10-29T06:24:24;13.07;;;7.97;;
14116;SDS011;7137;51.436;6.544;2022-10-29T06:27:25;11.53;;;7.53;;
14116;SDS011;7137;51.436;6.544;2022-10-29T06:30:27;11.60;;;7.47;;
14116;SDS011;7137;51.436;6.544;2022-10-29T06:33:29;11.30;;;7.33;;
14116;SDS011;7137;51.436;6.544;2022-10-29T06:36:32;12.53;;;7.27;;
14116;SDS011;7137;51.436;6.544;2022-10-29T06:39:35;10.87;;;7.03;;
14116;SDS011;7137;51.436;6.544;2022-10-29T06:42:36;12.57;;;6.73;;
14116;SDS011;7137;51.436;6.544;2022-10-29T06:45:38;12.10;;;7.03;;
14116;SDS011;7137;51.436;6.544;2022-10-29T06:48:39;10.67;;;6.87;;
14116;SDS011;7137;51.436;6.544;2022-10-29T06:51:42;13.63;;;7.30;;
14116;SDS011;7137;51.436;6.544;2022-10-29T06:54:44;10.90;;;7.17;;
14116;SDS011;7137;51.436;6.544;2022-10-29T06:57:45;12.93;;;6.60;;
14116;SDS011;7137;51.436;6.544;2022-10-29T07:00:47;11.03;;;6.93;;
14116;SDS011;7137;51.436;6.544;2022-10-29T07:03:48;13.23;;;6.87;;
14116;SDS011;7137;51.436;6.544;2022-10-29T07:06:51;12.70;;;6.40;;
14116;SDS011;7137;51.436;6.544;2022-10-29T07:09:53;10.97;;;6.50;;
14116;SDS011;7137;51.436;6.544;2022-10-29T07:12:54;12.47;;;6.60;;
14116;SDS011;7137;51.436;6.544;2022-10-29T07:15:56;11.67;;;6.53;;
14116;SDS011;7137;51.436;6.544;2022-10-29T07:18:58;10.33;;;6.30;;
14116;SDS011;7137;51.436;6.544;2022-10-29T07:22:00;10.90;;;6.47;;
14116;SDS011;7137;51.436;6.544;2022-10-29T07:25:02;11.63;;;6.60;;
14116;SDS011;7137;51.436;6.544;2022-10-29T07:28:05;14.30;;;6.47;;
14116;SDS011;7137;51.436;6.544;2022-10-29T07:31:07;10.63;;;6.00;;
14116;SDS011;7137;51.436;6.544;2022-10-29T07:34:09;11.40;;;5.73;;
14116;SDS011;7137;51.436;6.544;2022-10-29T07:37:12;13.10;;;5.83;;
14116;SDS011;7137;51.436;6.544;2022-10-29T07:40:13;12.10;;;5.93;;
14116;SDS011;7137;51.436;6.544;2022-10-29T07:43:15;13.63;;;6.23;;
14116;SDS011;7137;51.436;6.544;2022-10-29T07:46:17;10.03;;;5.77;;
14116;SDS011;7137;51.436;6.544;2022-10-29T07:49:20;14.53;;;5.77;;
14116;SDS011;7137;51.436;6.544;2022-10-29T07:52:23;11.10;;;5.70;;
14116;SDS011;7137;51.436;6.544;2022-10-29T07:55:24;11.07;;;5.20;;
14116;SDS011;7137;51.436;6.544;2022-10-29T07:58:26;9.00;;;5.03;;
14116;SDS011;7137;51.436;6.544;2022-10-29T08:01:28;11.53;;;5.37;;
14116;SDS011;7137;51.436;6.544;2022-10-29T08:04:29;13.27;;;6.00;;
14116;SDS011;7137;51.436;6.544;2022-10-29T08:07:32;10.33;;;5.53;;
14116;SDS011;7137;51.436;6.544;2022-10-29T08:10:34;14.33;;;5.70;;
14116;SDS011;7137;51.436;6.544;2022-10-29T08:13:36;10.57;;;5.67;;
14116;SDS011;7137;51.436;6.544;2022-10-29T08:16:38;12.60;;;6.07;;
14116;SDS011;7137;51.436;6.544;2022-10-29T08:19:39;10.00;;;5.50;;
14116;SDS011;7137;51.436;6.544;2022-10-29T08:22:42;11.73;;;5.87;;
14116;SDS011;7137;51.436;6.544;2022-10-29T08:25:44;14.47;;;6.43;;
14116;SDS011;7137;51.436;6.544;2022-10-29T08:28:46;11.93;;;5.87;;
14116;SDS011;7137;51.436;6.544;2022-10-29T08:31:47;10.07;;;5.90;;
14116;SDS011;7137;51.436;6.544;2022-10-29T08:34:49;11.03;;;5.73;;
14116;SDS011;7137;51.436;6.544;2022-10-29T08:37:52;13.67;;;6.17;;
14116;SDS011;7137;51.436;6.544;2022-10-29T08:40:59;9.97;;;5.67;;
14116;SDS011;7137;51.436;6.544;2022-10-29T08:44:17;14.97;;;6.70;;
14116;SDS011;7137;51.436;6.544;2022-10-29T08:47:41;13.87;;;7.10;;
14116;SDS011;7137;51.436;6.544;2022-10-29T08:50:51;16.30;;;6.40;;
14116;SDS011;7137;51.436;6.544;2022-10-29T08:53:59;14.40;;;6.77;;
14116;SDS011;7137;51.436;6.544;2022-10-29T08:57:03;10.57;;;5.70;;
14116;SDS011;7137;51.436;6.544;2022-10-29T09:00:13;12.43;;;5.80;;
14116;SDS011;7137;51.436;6.544;2022-10-29T09:03:16;10.87;;;5.90;;
14116;SDS011;7137;51.436;6.544;2022-10-29T09:06:20;11.40;;;5.70;;
14116;SDS011;7137;51.436;6.544;2022-10-29T09:09:28;10.53;;;5.27;;
14116;SDS011;7137;51.436;6.544;2022-10-29T09:15:59;12.87;;;6.07;;
14116;SDS011;7137;51.436;6.544;2022-10-29T09:19:15;10.57;;;5.43;;
14116;SDS011;7137;51.436;6.544;2022-10-29T09:22:31;12.27;;;6.10;;
14116;SDS011;7137;51.436;6.544;2022-10-29T09:25:42;10.57;;;5.33;;
14116;SDS011;7137;51.436;6.544;2022-10-29T09:28:54;11.47;;;5.60;;
14116;SDS011;7137;51.436;6.544;2022-10-29T09:32:07;13.47;;;5.70;;
14116;SDS011;7137;51.436;6.544;2022-10-29T09:35:12;12.53;;;5.33;;
14116;SDS011;7137;51.436;6.544;2022-10-29T09:38:16;8.93;;;5.53;;
14116;SDS011;7137;51.436;6.544;2022-10-29T09:41:21;12.80;;;5.30;;
14116;SDS011;7137;51.436;6.544;2022-10-29T09:44:29;12.73;;;5.20;;
14116;SDS011;7137;51.436;6.544;2022-10-29T09:47:37;12.30;;;5.20;;
14116;SDS011;7137;51.436;6.544;2022-10-29T09:50:49;13.77;;;5.70;;
14116;SDS011;7137;51.436;6.544;2022-10-29T09:53:57;10.50;;;4.83;;
14116;SDS011;7137;51.436;6.544;2022-10-29T09:57:01;10.03;;;4.93;;
14116;SDS011;7137;51.436;6.544;2022-10-29T10:00:04;9.13;;;5.07;;
14116;SDS011;7137;51.436;6.544;2022-10-29T10:03:10;12.13;;;5.53;;
14116;SDS011;7137;51.436;6.544;2022-10-29T10:06:16;13.17;;;5.50;;
14116;SDS011;7137;51.436;6.544;2022-10-29T10:09:17;12.97;;;6.23;;
14116;SDS011;7137;51.436;6.544;2022-10-29T10:12:21;10.70;;;5.40;;
14116;SDS011;7137;51.436;6.544;2022-10-29T10:15:25;11.77;;;5.00;;
14116;SDS011;7137;51.436;6.544;2022-10-29T10:18:37;12.93;;;5.30;;
14116;SDS011;7137;51.436;6.544;2022-10-29T10:21:40;11.27;;;5.30;;
14116;SDS011;7137;51.436;6.544;2022-10-29T10:24:41;11.83;;;5.50;;
14116;SDS011;7137;51.436;6.544;2022-10-29T10:27:44;9.43;;;4.90;;
14116;SDS011;7137;51.436;6.544;2022-10-29T10:31:01;10.33;;;4.93;;
14116;SDS011;7137;51.436;6.544;2022-10-29T10:34:08;11.93;;;5.90;;
14116;SDS011;7137;51.436;6.544;2022-10-29T10:37:24;14.10;;;5.10;;
14116;SDS011;7137;51.436;6.544;2022-10-29T10:40:25;11.67;;;4.60;;
14116;SDS011;7137;51.436;6.544;2022-10-29T10:43:29;12.50;;;5.20;;
14116;SDS011;7137;51.436;6.544;2022-10-29T10:46:32;11.87;;;5.40;;
14116;SDS011;7137;51.436;6.544;2022-10-29T10:49:37;12.53;;;5.20;;
14116;SDS011;7137;51.436;6.544;2022-10-29T10:52:39;12.63;;;5.70;;
14116;SDS011;7137;51.436;6.544;2022-10-29T10:55:45;9.30;;;5.03;;
14116;SDS011;7137;51.436;6.544;2022-10-29T10:58:52;12.00;;;4.80;;
14116;SDS011;7137;51.436;6.544;2022-10-29T11:02:01;9.67;;;4.77;;
14116;SDS011;7137;51.436;6.544;2022-10-29T11:05:07;11.10;;;5.20;;
14116;SDS011;7137;51.436;6.544;2022-10-29T11:08:16;10.10;;;4.83;;
14116;SDS011;7137;51.436;6.544;2022-10-29T11:11:21;10.93;;;4.73;;
14116;SDS011;7137;51.436;6.544;2022-10-29T11:14:31;13.30;;;5.03;;
14116;SDS011;7137;51.436;6.544;2022-10-29T11:17:37;13.17;;;5.20;;
14116;SDS011;7137;51.436;6.544;2022-10-29T11:20:46;10.80;;;5.10;;
14116;SDS011;7137;51.436;6.544;2022-10-29T11:23:55;12.03;;;4.80;;
14116;SDS011;7137;51.436;6.544;2022-10-29T11:27:03;11.13;;;4.90;;
14116;SDS011;7137;51.436;6.544;2022-10-29T11:30:12;11.90;;;4.40;;
14116;SDS011;7137;51.436;6.544;2022-10-29T11:33:17;11.23;;;4.40;;
14116;SDS011;7137;51.436;6.544;2022-10-29T11:36:26;11.63;;;4.83;;
14116;SDS011;7137;51.436;6.544;2022-10-29T11:39:33;10.80;;;4.10;;
14116;SDS011;7137;51.436;6.544;2022-10-29T11:42:46;11.27;;;4.47;;
14116;SDS011;7137;51.436;6.544;2022-10-29T11:45:53;10.90;;;4.57;;
14116;SDS011;7137;51.436;6.544;2022-10-29T11:49:00;9.07;;;4.50;;
14116;SDS011;7137;51.436;6.544;2022-10-29T11:52:11;9.30;;;4.63;;
14116;SDS011;7137;51.436;6.544;2022-10-29T11:55:18;10.17;;;4.47;;
14116;SDS011;7137;51.436;6.544;2022-10-29T11:58:27;12.63;;;4.60;;
14116;SDS011;7137;51.436;6.544;2022-10-29T12:01:37;9.20;;;4.53;;
14116;SDS011;7137;51.436;6.544;2022-10-29T12:04:47;10.00;;;4.37;;
14116;SDS011;7137;51.436;6.544;2022-10-29T12:08:03;12.40;;;4.40;;
14116;SDS011;7137;51.436;6.544;2022-10-29T12:11:18;10.53;;;4.80;;
14116;SDS011;7137;51.436;6.544;2022-10-29T12:14:26;12.23;;;4.80;;
14116;SDS011;7137;51.436;6.544;2022-10-29T12:17:34;9.87;;;4.40;;
14116;SDS011;7137;51.436;6.544;2022-10-29T12:20:43;12.10;;;5.07;;
14116;SDS011;7137;51.436;6.544;2022-10-29T12:23:52;10.60;;;4.40;;
14116;SDS011;7137;51.436;6.544;2022-10-29T12:27:03;13.23;;;4.87;;
14116;SDS011;7137;51.436;6.544;2022-10-29T12:30:14;10.90;;;4.40;;
14116;SDS011;7137;51.436;6.544;2022-10-29T12:33:21;11.80;;;4.17;;
14116;SDS011;7137;51.436;6.544;2022-10-29T12:36:27;10.93;;;4.27;;
14116;SDS011;7137;51.436;6.544;2022-10-29T12:39:35;9.73;;;3.90;;
14116;SDS011;7137;51.436;6.544;2022-10-29T12:42:39;9.47;;;4.37;;
14116;SDS011;7137;51.436;6.544;2022-10-29T12:45:42;10.27;;;4.17;;
14116;SDS011;7137;51.436;6.544;2022-10-29T12:48:57;13.93;;;4.67;;
14116;SDS011;7137;51.436;6.544;2022-10-29T12:52:09;9.63;;;4.57;;
14116;SDS011;7137;51.436;6.544;2022-10-29T12:55:15;10.60;;;4.60;;
14116;SDS011;7137;51.436;6.544;2022-10-29T13:01:47;11.90;;;4.00;;
14116;SDS011;7137;51.436;6.544;2022-10-29T13:11:40;9.13;;;3.77;;
14116;SDS011;7137;51.436;6.544;2022-10-29T13:14:44;9.47;;;4.23;;
14116;SDS011;7137;51.436;6.544;2022-10-29T13:17:50;12.60;;;4.83;;
14116;SDS011;7137;51.436;6.544;2022-10-29T13:20:54;8.60;;;4.30;;
14116;SDS011;7137;51.436;6.544;2022-10-29T13:24:00;11.13;;;4.53;;
14116;SDS011;7137;51.436;6.544;2022-10-29T13:27:04;11.30;;;4.77;;
14116;SDS011;7137;51.436;6.544;2022-10-29T13:30:36;10.33;;;4.40;;
14116;SDS011;7137;51.436;6.544;2022-10-29T13:33:48;12.57;;;4.83;;
14116;SDS011;7137;51.436;6.544;2022-10-29T13:36:51;12.43;;;4.60;;
14116;SDS011;7137;51.436;6.544;2022-10-29T13:43:29;12.43;;;4.27;;
14116;SDS011;7137;51.436;6.544;2022-10-29T13:46:40;11.40;;;4.20;;
14116;SDS011;7137;51.436;6.544;2022-10-29T13:49:45;9.90;;;4.53;;
14116;SDS011;7137;51.436;6.544;2022-10-29T13:52:49;10.13;;;4.57;;
14116;SDS011;7137;51.436;6.544;2022-10-29T13:55:53;9.60;;;4.70;;
14116;SDS011;7137;51.436;6.544;2022-10-29T13:58:58;8.93;;;4.33;;
14116;SDS011;7137;51.436;6.544;2022-10-29T14:02:13;10.33;;;4.60;;
14116;SDS011;7137;51.436;6.544;2022-10-29T14:05:22;10.30;;;4.23;;
14116;SDS011;7137;51.436;6.544;2022-10-29T14:08:33;10.10;;;4.43;;
14116;SDS011;7137;51.436;6.544;2022-10-29T14:11:40;12.63;;;4.93;;
14116;SDS011;7137;51.436;6.544;2022-10-29T14:14:47;10.30;;;4.20;;
14116;SDS011;7137;51.436;6.544;2022-10-29T14:17:53;11.50;;;4.20;;
14116;SDS011;7137;51.436;6.544;2022-10-29T14:20:55;9.17;;;4.10;;
14116;SDS011;7137;51.436;6.544;2022-10-29T14:23:58;11.70;;;4.80;;
14116;SDS011;7137;51.436;6.544;2022-10-29T14:27:04;11.60;;;4.77;;
14116;SDS011;7137;51.436;6.544;2022-10-29T14:30:17;9.83;;;4.37;;
14116;SDS011;7137;51.436;6.544;2022-10-29T14:33:23;11.03;;;4.70;;
14116;SDS011;7137;51.436;6.544;2022-10-29T14:36:27;10.07;;;3.87;;
14116;SDS011;7137;51.436;6.544;2022-10-29T14:39:33;8.97;;;4.23;;
14116;SDS011;7137;51.436;6.544;2022-10-29T14:42:39;10.37;;;4.53;;
14116;SDS011;7137;51.436;6.544;2022-10-29T14:45:46;7.93;;;4.23;;
14116;SDS011;7137;51.436;6.544;2022-10-29T14:48:51;9.73;;;4.30;;
14116;SDS011;7137;51.436;6.544;2022-10-29T14:51:57;9.70;;;4.20;;
14116;SDS011;7137;51.436;6.544;2022-10-29T14:55:02;8.57;;;4.43;;
14116;SDS011;7137;51.436;6.544;2022-10-29T14:58:12;21.93;;;5.53;;
14116;SDS011;7137;51.436;6.544;2022-10-29T15:01:19;11.23;;;4.47;;
14116;SDS011;7137;51.436;6.544;2022-10-29T15:04:22;7.47;;;4.33;;
14116;SDS011;7137;51.436;6.544;2022-10-29T15:07:30;10.17;;;4.57;;
14116;SDS011;7137;51.436;6.544;2022-10-29T15:10:42;9.23;;;4.00;;
14116;SDS011;7137;51.436;6.544;2022-10-29T15:13:46;6.87;;;4.33;;
14116;SDS011;7137;51.436;6.544;2022-10-29T15:16:49;11.00;;;4.43;;
14116;SDS011;7137;51.436;6.544;2022-10-29T15:19:51;10.40;;;4.50;;
14116;SDS011;7137;51.436;6.544;2022-10-29T15:22:57;10.97;;;4.47;;
14116;SDS011;7137;51.436;6.544;2022-10-29T15:26:00;7.90;;;4.20;;
14116;SDS011;7137;51.436;6.544;2022-10-29T15:29:07;9.57;;;4.03;;
14116;SDS011;7137;51.436;6.544;2022-10-29T15:32:12;12.80;;;4.37;;
14116;SDS011;7137;51.436;6.544;2022-10-29T15:35:17;9.73;;;4.57;;
14116;SDS011;7137;51.436;6.544;2022-10-29T15:42:02;9.90;;;4.23;;
14116;SDS011;7137;51.436;6.544;2022-10-29T15:45:21;9.73;;;4.03;;
14116;SDS011;7137;51.436;6.544;2022-10-29T15:48:33;10.00;;;4.03;;
14116;SDS011;7137;51.436;6.544;2022-10-29T15:51:36;9.47;;;4.23;;
14116;SDS011;7137;51.436;6.544;2022-10-29T15:54:38;9.90;;;4.13;;
14116;SDS011;7137;51.436;6.544;2022-10-29T15:57:39;10.77;;;4.33;;
14116;SDS011;7137;51.436;6.544;2022-10-29T16:00:41;10.87;;;4.10;;
14116;SDS011;7137;51.436;6.544;2022-10-29T16:03:44;11.97;;;4.77;;
14116;SDS011;7137;51.436;6.544;2022-10-29T16:06:46;12.20;;;4.33;;
14116;SDS011;7137;51.436;6.544;2022-10-29T16:09:49;10.50;;;4.30;;
14116;SDS011;7137;51.436;6.544;2022-10-29T16:12:52;9.57;;;4.23;;
14116;SDS011;7137;51.436;6.544;2022-10-29T16:15:54;10.57;;;4.30;;
14116;SDS011;7137;51.436;6.544;2022-10-29T16:18:57;8.73;;;4.20;;
14116;SDS011;7137;51.436;6.544;2022-10-29T16:21:59;8.87;;;4.10;;
14116;SDS011;7137;51.436;6.544;2022-10-29T16:25:01;9.40;;;4.10;;
14116;SDS011;7137;51.436;6.544;2022-10-29T16:28:03;8.77;;;3.83;;
14116;SDS011;7137;51.436;6.544;2022-10-29T16:31:07;8.93;;;4.27;;
14116;SDS011;7137;51.436;6.544;2022-10-29T16:34:20;8.70;;;3.90;;
14116;SDS011;7137;51.436;6.544;2022-10-29T16:37:23;9.37;;;4.53;;
14116;SDS011;7137;51.436;6.544;2022-10-29T16:40:25;13.87;;;4.73;;
14116;SDS011;7137;51.436;6.544;2022-10-29T16:43:28;11.87;;;4.57;;
14116;SDS011;7137;51.436;6.544;2022-10-29T16:46:30;9.00;;;4.40;;
14116;SDS011;7137;51.436;6.544;2022-10-29T16:49:34;8.77;;;3.90;;
14116;SDS011;7137;51.436;6.544;2022-10-29T16:52:36;14.40;;;4.53;;
14116;SDS011;7137;51.436;6.544;2022-10-29T16:55:39;9.17;;;4.70;;
14116;SDS011;7137;51.436;6.544;2022-10-29T16:58:41;10.27;;;4.47;;
14116;SDS011;7137;51.436;6.544;2022-10-29T17:01:42;9.67;;;4.57;;
14116;SDS011;7137;51.436;6.544;2022-10-29T17:04:49;8.77;;;4.07;;
14116;SDS011;7137;51.436;6.544;2022-10-29T17:07:51;10.63;;;4.57;;
14116;SDS011;7137;51.436;6.544;2022-10-29T17:10:56;9.33;;;4.10;;
14116;SDS011;7137;51.436;6.544;2022-10-29T17:13:58;8.17;;;4.40;;
14116;SDS011;7137;51.436;6.544;2022-10-29T17:16:59;8.47;;;4.40;;
14116;SDS011;7137;51.436;6.544;2022-10-29T17:20:03;8.90;;;4.67;;
14116;SDS011;7137;51.436;6.544;2022-10-29T17:23:06;9.30;;;4.40;;
14116;SDS011;7137;51.436;6.544;2022-10-29T17:26:07;11.20;;;5.07;;
14116;SDS011;7137;51.436;6.544;2022-10-29T17:29:09;9.67;;;4.40;;
14116;SDS011;7137;51.436;6.544;2022-10-29T17:32:11;9.43;;;4.50;;
14116;SDS011;7137;51.436;6.544;2022-10-29T17:35:15;12.03;;;5.17;;
14116;SDS011;7137;51.436;6.544;2022-10-29T17:38:17;12.77;;;4.63;;
14116;SDS011;7137;51.436;6.544;2022-10-29T17:41:19;11.43;;;4.87;;
14116;SDS011;7137;51.436;6.544;2022-10-29T17:44:20;10.97;;;4.87;;
14116;SDS011;7137;51.436;6.544;2022-10-29T17:47:22;10.27;;;4.70;;
14116;SDS011;7137;51.436;6.544;2022-10-29T17:50:25;9.17;;;5.00;;
14116;SDS011;7137;51.436;6.544;2022-10-29T17:53:27;9.70;;;4.60;;
14116;SDS011;7137;51.436;6.544;2022-10-29T17:56:30;10.63;;;4.60;;
14116;SDS011;7137;51.436;6.544;2022-10-29T17:59:33;10.27;;;4.60;;
14116;SDS011;7137;51.436;6.544;2022-10-29T18:02:34;11.00;;;4.70;;
14116;SDS011;7137;51.436;6.544;2022-10-29T18:05:37;12.53;;;4.80;;
14116;SDS011;7137;51.436;6.544;2022-10-29T18:08:39;11.60;;;4.77;;
14116;SDS011;7137;51.436;6.544;2022-10-29T18:11:42;9.50;;;4.90;;
14116;SDS011;7137;51.436;6.544;2022-10-29T18:14:43;12.23;;;4.93;;
14116;SDS011;7137;51.436;6.544;2022-10-29T18:17:45;10.83;;;5.27;;
14116;SDS011;7137;51.436;6.544;2022-10-29T18:20:48;10.97;;;5.13;;
14116;SDS011;7137;51.436;6.544;2022-10-29T18:23:49;10.47;;;4.50;;
14116;SDS011;7137;51.436;6.544;2022-10-29T18:26:51;10.63;;;4.67;;
14116;SDS011;7137;51.436;6.544;2022-10-29T18:29:53;11.90;;;4.97;;
14116;SDS011;7137;51.436;6.544;2022-10-29T18:32:54;8.50;;;4.70;;
14116;SDS011;7137;51.436;6.544;2022-10-29T18:35:57;11.80;;;4.67;;
14116;SDS011;7137;51.436;6.544;2022-10-29T18:38:59;8.27;;;4.60;;
14116;SDS011;7137;51.436;6.544;2022-10-29T18:42:00;8.77;;;4.73;;
14116;SDS011;7137;51.436;6.544;2022-10-29T18:45:02;10.90;;;4.33;;
14116;SDS011;7137;51.436;6.544;2022-10-29T18:48:05;9.30;;;4.77;;
14116;SDS011;7137;51.436;6.544;2022-10-29T18:51:09;10.93;;;4.67;;
14116;SDS011;7137;51.436;6.544;2022-10-29T18:54:12;10.47;;;4.63;;
14116;SDS011;7137;51.436;6.544;2022-10-29T18:57:14;9.40;;;4.50;;
14116;SDS011;7137;51.436;6.544;2022-10-29T19:00:17;8.60;;;4.20;;